sensor_id;sensor_type;location;lat;lon;timestamp;temperature;humidity
10722;DHT22;5412;59.450;18.124;2023-02-01T00:02:02;0.90;99.90
10722;DHT22;5412;59.450;18.124;2023-02-01T00:04:28;0.90;99.90
10722;DHT22;5412;59.450;18.124;2023-02-01T00:06:53;0.90;99.90
10722;DHT22;5412;59.450;18.124;2023-02-01T00:09:19;0.90;99.90
10722;DHT22;5412;59.450;18.124;2023-02-01T00:11:45;0.90;99.90
10722;DHT22;5412;59.450;18.124;2023-02-01T00:14:11;1.00;99.90
10722;DHT22;5412;59.450;18.124;2023-02-01T00:16:37;0.80;99.90
10722;DHT22;5412;59.450;18.124;2023-02-01T00:19:11;0.70;99.90
10722;DHT22;5412;59.450;18.124;2023-02-01T00:21:37;0.70;99.90
10722;DHT22;5412;59.450;18.124;2023-02-01T00:24:04;0.60;99.90
10722;DHT22;5412;59.450;18.124;2023-02-01T00:26:38;0.70;99.90
10722;DHT22;5412;59.450;18.124;2023-02-01T00:29:06;0.70;99.90
10722;DHT22;5412;59.450;18.124;2023-02-01T00:31:34;0.80;99.90
10722;DHT22;5412;59.450;18.124;2023-02-01T00:34:00;0.80;99.90
10722;DHT22;5412;59.450;18.124;2023-02-01T00:36:26;0.80;99.90
10722;DHT22;5412;59.450;18.124;2023-02-01T00:38:51;0.70;99.90
10722;DHT22;5412;59.450;18.124;2023-02-01T00:41:19;0.80;99.90
10722;DHT22;5412;59.450;18.124;2023-02-01T00:43:45;0.80;99.90
10722;DHT22;5412;59.450;18.124;2023-02-01T00:46:12;1.00;99.90
10722;DHT22;5412;59.450;18.124;2023-02-01T00:48:39;1.00;99.90
10722;DHT22;5412;59.450;18.124;2023-02-01T00:51:10;0.90;99.90
10722;DHT22;5412;59.450;18.124;2023-02-01T00:53:36;0.90;99.90
10722;DHT22;5412;59.450;18.124;2023-02-01T00:56:02;0.90;99.90
10722;DHT22;5412;59.450;18.124;2023-02-01T00:58:29;1.00;99.90
10722;DHT22;5412;59.450;18.124;2023-02-01T01:01:22;1.10;99.90
10722;DHT22;5412;59.450;18.124;2023-02-01T01:03:54;1.10;99.90
10722;DHT22;5412;59.450;18.124;2023-02-01T01:06:23;1.10;99.90
10722;DHT22;5412;59.450;18.124;2023-02-01T01:08:54;1.10;99.90
10722;DHT22;5412;59.450;18.124;2023-02-01T01:11:23;1.10;99.90
10722;DHT22;5412;59.450;18.124;2023-02-01T01:13:51;1.20;99.90
10722;DHT22;5412;59.450;18.124;2023-02-01T01:16:18;1.20;99.90
10722;DHT22;5412;59.450;18.124;2023-02-01T01:18:44;1.20;99.90
10722;DHT22;5412;59.450;18.124;2023-02-01T01:21:12;1.30;99.90
10722;DHT22;5412;59.450;18.124;2023-02-01T01:23:38;1.40;99.90
10722;DHT22;5412;59.450;18.124;2023-02-01T01:26:06;1.30;99.90
10722;DHT22;5412;59.450;18.124;2023-02-01T01:28:32;1.20;99.90
10722;DHT22;5412;59.450;18.124;2023-02-01T01:30:58;1.20;99.90
10722;DHT22;5412;59.450;18.124;2023-02-01T01:33:24;1.10;99.90
10722;DHT22;5412;59.450;18.124;2023-02-01T01:35:49;1.20;99.90
10722;DHT22;5412;59.450;18.124;2023-02-01T01:38:15;1.10;99.90
10722;DHT22;5412;59.450;18.124;2023-02-01T01:40:45;1.10;99.90
10722;DHT22;5412;59.450;18.124;2023-02-01T01:43:17;1.20;99.90
10722;DHT22;5412;59.450;18.124;2023-02-01T01:45:43;1.20;99.90
10722;DHT22;5412;59.450;18.124;2023-02-01T01:48:26;1.20;99.90
10722;DHT22;5412;59.450;18.124;2023-02-01T01:51:04;1.30;99.90
10722;DHT22;5412;59.450;18.124;2023-02-01T01:53:50;1.30;99.90
10722;DHT22;5412;59.450;18.124;2023-02-01T01:56:19;1.30;99.90
10722;DHT22;5412;59.450;18.124;2023-02-01T01:58:45;1.30;99.90
10722;DHT22;5412;59.450;18.124;2023-02-01T02:01:11;1.20;99.90
10722;DHT22;5412;59.450;18.124;2023-02-01T02:03:42;1.20;99.90
10722;DHT22;5412;59.450;18.124;2023-02-01T02:08:50;1.30;99.90
10722;DHT22;5412;59.450;18.124;2023-02-01T02:11:17;1.40;99.90
10722;DHT22;5412;59.450;18.124;2023-02-01T02:13:46;1.40;99.90
10722;DHT22;5412;59.450;18.124;2023-02-01T02:25:03;1.20;99.90
10722;DHT22;5412;59.450;18.124;2023-02-01T02:30:53;1.20;99.90
10722;DHT22;5412;59.450;18.124;2023-02-01T02:36:24;1.20;99.90
10722;DHT22;5412;59.450;18.124;2023-02-01T02:39:03;1.10;99.90
10722;DHT22;5412;59.450;18.124;2023-02-01T02:41:49;1.10;99.90
10722;DHT22;5412;59.450;18.124;2023-02-01T02:47:36;1.20;99.90
10722;DHT22;5412;59.450;18.124;2023-02-01T02:53:23;1.20;99.90
10722;DHT22;5412;59.450;18.124;2023-02-01T02:56:12;1.20;99.90
10722;DHT22;5412;59.450;18.124;2023-02-01T02:58:57;1.20;99.90
10722;DHT22;5412;59.450;18.124;2023-02-01T03:01:42;1.30;99.90
10722;DHT22;5412;59.450;18.124;2023-02-01T03:04:26;1.30;99.90
10722;DHT22;5412;59.450;18.124;2023-02-01T03:06:53;1.30;99.90
10722;DHT22;5412;59.450;18.124;2023-02-01T03:09:48;1.20;99.90
10722;DHT22;5412;59.450;18.124;2023-02-01T03:12:15;1.20;99.90
10722;DHT22;5412;59.450;18.124;2023-02-01T03:15:07;1.30;99.90
10722;DHT22;5412;59.450;18.124;2023-02-01T03:17:37;1.40;99.90
10722;DHT22;5412;59.450;18.124;2023-02-01T03:20:06;1.40;99.90
10722;DHT22;5412;59.450;18.124;2023-02-01T03:22:33;1.30;99.90
10722;DHT22;5412;59.450;18.124;2023-02-01T03:25:21;1.30;99.90
10722;DHT22;5412;59.450;18.124;2023-02-01T03:28:07;1.40;99.90
10722;DHT22;5412;59.450;18.124;2023-02-01T03:30:44;1.40;99.90
10722;DHT22;5412;59.450;18.124;2023-02-01T03:33:15;1.40;99.90
10722;DHT22;5412;59.450;18.124;2023-02-01T03:36:02;1.40;99.90
10722;DHT22;5412;59.450;18.124;2023-02-01T03:44:13;1.30;99.90
10722;DHT22;5412;59.450;18.124;2023-02-01T03:46:52;1.40;99.90
10722;DHT22;5412;59.450;18.124;2023-02-01T03:49:44;1.40;99.90
10722;DHT22;5412;59.450;18.124;2023-02-01T03:52:18;1.40;99.90
10722;DHT22;5412;59.450;18.124;2023-02-01T03:54:46;1.40;99.90
10722;DHT22;5412;59.450;18.124;2023-02-01T03:57:14;1.40;99.90
10722;DHT22;5412;59.450;18.124;2023-02-01T03:59:44;1.50;99.90
10722;DHT22;5412;59.450;18.124;2023-02-01T04:02:11;1.60;99.90
10722;DHT22;5412;59.450;18.124;2023-02-01T04:04:37;1.70;99.90
10722;DHT22;5412;59.450;18.124;2023-02-01T04:07:03;1.70;99.90
10722;DHT22;5412;59.450;18.124;2023-02-01T04:09:29;1.60;99.90
10722;DHT22;5412;59.450;18.124;2023-02-01T04:11:54;1.50;99.90
10722;DHT22;5412;59.450;18.124;2023-02-01T04:14:20;1.50;99.90
10722;DHT22;5412;59.450;18.124;2023-02-01T04:16:46;1.50;99.90
10722;DHT22;5412;59.450;18.124;2023-02-01T04:19:12;1.40;99.90
10722;DHT22;5412;59.450;18.124;2023-02-01T04:21:38;1.40;99.90
10722;DHT22;5412;59.450;18.124;2023-02-01T04:24:04;1.40;99.90
10722;DHT22;5412;59.450;18.124;2023-02-01T04:26:29;1.40;99.90
10722;DHT22;5412;59.450;18.124;2023-02-01T04:28:55;1.40;99.90
10722;DHT22;5412;59.450;18.124;2023-02-01T04:31:21;1.40;99.90
10722;DHT22;5412;59.450;18.124;2023-02-01T04:33:54;1.40;99.90
10722;DHT22;5412;59.450;18.124;2023-02-01T04:36:20;1.40;99.90
10722;DHT22;5412;59.450;18.124;2023-02-01T04:38:48;1.40;99.90
10722;DHT22;5412;59.450;18.124;2023-02-01T04:41:14;1.40;99.90
10722;DHT22;5412;59.450;18.124;2023-02-01T04:43:41;1.40;99.90
10722;DHT22;5412;59.450;18.124;2023-02-01T04:46:06;1.40;99.90
10722;DHT22;5412;59.450;18.124;2023-02-01T04:48:32;1.20;99.90
10722;DHT22;5412;59.450;18.124;2023-02-01T04:50:58;1.20;99.90
10722;DHT22;5412;59.450;18.124;2023-02-01T04:53:23;1.10;99.90
10722;DHT22;5412;59.450;18.124;2023-02-01T04:55:49;1.10;99.90
10722;DHT22;5412;59.450;18.124;2023-02-01T04:58:15;1.20;99.90
10722;DHT22;5412;59.450;18.124;2023-02-01T05:00:41;1.20;99.90
10722;DHT22;5412;59.450;18.124;2023-02-01T05:03:07;1.20;99.90
10722;DHT22;5412;59.450;18.124;2023-02-01T05:05:33;1.30;99.90
10722;DHT22;5412;59.450;18.124;2023-02-01T05:07:59;1.30;99.90
10722;DHT22;5412;59.450;18.124;2023-02-01T05:10:24;1.30;99.90
10722;DHT22;5412;59.450;18.124;2023-02-01T05:12:50;2.30;99.90
10722;DHT22;5412;59.450;18.124;2023-02-01T05:15:34;1.50;99.90
10722;DHT22;5412;59.450;18.124;2023-02-01T05:18:00;1.60;99.90
10722;DHT22;5412;59.450;18.124;2023-02-01T05:20:26;1.60;99.90
10722;DHT22;5412;59.450;18.124;2023-02-01T05:22:52;1.60;99.90
10722;DHT22;5412;59.450;18.124;2023-02-01T05:25:17;1.60;99.90
10722;DHT22;5412;59.450;18.124;2023-02-01T05:27:44;1.70;99.90
10722;DHT22;5412;59.450;18.124;2023-02-01T05:30:11;1.50;99.90
10722;DHT22;5412;59.450;18.124;2023-02-01T05:32:37;1.50;99.90
10722;DHT22;5412;59.450;18.124;2023-02-01T05:35:03;1.60;99.90
10722;DHT22;5412;59.450;18.124;2023-02-01T05:37:28;1.50;99.90
10722;DHT22;5412;59.450;18.124;2023-02-01T05:39:54;1.60;99.90
10722;DHT22;5412;59.450;18.124;2023-02-01T05:42:20;1.60;99.90
10722;DHT22;5412;59.450;18.124;2023-02-01T05:44:46;1.70;99.90
10722;DHT22;5412;59.450;18.124;2023-02-01T05:47:11;1.70;99.90
10722;DHT22;5412;59.450;18.124;2023-02-01T05:49:38;1.70;99.90
10722;DHT22;5412;59.450;18.124;2023-02-01T05:52:03;1.60;99.90
10722;DHT22;5412;59.450;18.124;2023-02-01T05:54:29;1.50;99.90
10722;DHT22;5412;59.450;18.124;2023-02-01T05:56:55;1.50;99.90
10722;DHT22;5412;59.450;18.124;2023-02-01T05:59:21;1.50;99.90
10722;DHT22;5412;59.450;18.124;2023-02-01T06:01:46;1.60;99.90
10722;DHT22;5412;59.450;18.124;2023-02-01T06:04:12;1.70;99.90
10722;DHT22;5412;59.450;18.124;2023-02-01T06:06:38;1.80;99.90
10722;DHT22;5412;59.450;18.124;2023-02-01T06:09:04;1.80;99.90
10722;DHT22;5412;59.450;18.124;2023-02-01T06:11:30;1.80;99.90
10722;DHT22;5412;59.450;18.124;2023-02-01T06:13:56;1.90;99.90
10722;DHT22;5412;59.450;18.124;2023-02-01T06:16:22;1.90;99.90
10722;DHT22;5412;59.450;18.124;2023-02-01T06:18:48;2.00;99.90
10722;DHT22;5412;59.450;18.124;2023-02-01T06:21:14;1.80;99.90
10722;DHT22;5412;59.450;18.124;2023-02-01T06:23:52;1.90;99.90
10722;DHT22;5412;59.450;18.124;2023-02-01T06:26:18;1.90;99.90
10722;DHT22;5412;59.450;18.124;2023-02-01T06:28:44;1.90;99.90
10722;DHT22;5412;59.450;18.124;2023-02-01T06:31:10;1.90;99.90
10722;DHT22;5412;59.450;18.124;2023-02-01T06:33:37;1.90;99.90
10722;DHT22;5412;59.450;18.124;2023-02-01T06:36:05;2.00;99.90
10722;DHT22;5412;59.450;18.124;2023-02-01T06:38:32;1.90;99.90
10722;DHT22;5412;59.450;18.124;2023-02-01T06:41:00;1.80;99.90
10722;DHT22;5412;59.450;18.124;2023-02-01T06:43:27;1.90;99.90
10722;DHT22;5412;59.450;18.124;2023-02-01T06:45:53;1.90;99.90
10722;DHT22;5412;59.450;18.124;2023-02-01T06:48:19;1.80;99.90
10722;DHT22;5412;59.450;18.124;2023-02-01T06:50:45;1.90;99.90
10722;DHT22;5412;59.450;18.124;2023-02-01T06:53:10;1.90;99.90
10722;DHT22;5412;59.450;18.124;2023-02-01T06:55:36;2.00;99.90
10722;DHT22;5412;59.450;18.124;2023-02-01T06:58:02;2.00;99.90
10722;DHT22;5412;59.450;18.124;2023-02-01T07:00:29;2.00;99.90
10722;DHT22;5412;59.450;18.124;2023-02-01T07:02:55;1.80;99.90
10722;DHT22;5412;59.450;18.124;2023-02-01T07:05:22;1.90;99.90
10722;DHT22;5412;59.450;18.124;2023-02-01T07:07:48;1.90;99.90
10722;DHT22;5412;59.450;18.124;2023-02-01T07:10:14;1.90;99.90
10722;DHT22;5412;59.450;18.124;2023-02-01T07:12:40;1.90;99.90
10722;DHT22;5412;59.450;18.124;2023-02-01T07:15:06;1.90;99.90
10722;DHT22;5412;59.450;18.124;2023-02-01T07:17:32;1.90;99.90
10722;DHT22;5412;59.450;18.124;2023-02-01T07:19:58;1.90;99.90
10722;DHT22;5412;59.450;18.124;2023-02-01T07:22:27;2.00;99.90
10722;DHT22;5412;59.450;18.124;2023-02-01T07:24:53;2.00;99.90
10722;DHT22;5412;59.450;18.124;2023-02-01T07:27:19;1.90;99.90
10722;DHT22;5412;59.450;18.124;2023-02-01T07:29:45;1.90;99.90
10722;DHT22;5412;59.450;18.124;2023-02-01T07:32:11;1.80;99.90
10722;DHT22;5412;59.450;18.124;2023-02-01T07:34:37;1.80;99.90
10722;DHT22;5412;59.450;18.124;2023-02-01T07:37:02;1.80;99.90
10722;DHT22;5412;59.450;18.124;2023-02-01T07:39:28;1.80;99.90
10722;DHT22;5412;59.450;18.124;2023-02-01T07:41:57;1.80;99.90
10722;DHT22;5412;59.450;18.124;2023-02-01T07:44:23;1.90;99.90
10722;DHT22;5412;59.450;18.124;2023-02-01T07:46:49;2.00;99.90
10722;DHT22;5412;59.450;18.124;2023-02-01T07:49:15;2.10;99.90
10722;DHT22;5412;59.450;18.124;2023-02-01T07:51:43;2.20;99.90
10722;DHT22;5412;59.450;18.124;2023-02-01T07:54:08;2.20;99.90
10722;DHT22;5412;59.450;18.124;2023-02-01T07:56:34;2.20;99.90
10722;DHT22;5412;59.450;18.124;2023-02-01T07:59:00;2.20;99.90
10722;DHT22;5412;59.450;18.124;2023-02-01T08:01:27;2.20;99.90
10722;DHT22;5412;59.450;18.124;2023-02-01T08:03:55;2.30;99.90
10722;DHT22;5412;59.450;18.124;2023-02-01T08:06:23;2.30;99.90
10722;DHT22;5412;59.450;18.124;2023-02-01T08:08:50;2.40;99.90
10722;DHT22;5412;59.450;18.124;2023-02-01T08:11:16;2.40;99.90
10722;DHT22;5412;59.450;18.124;2023-02-01T08:13:42;2.40;99.90
10722;DHT22;5412;59.450;18.124;2023-02-01T08:16:10;2.50;99.90
10722;DHT22;5412;59.450;18.124;2023-02-01T08:18:37;2.50;99.90
10722;DHT22;5412;59.450;18.124;2023-02-01T08:21:24;2.50;99.90
10722;DHT22;5412;59.450;18.124;2023-02-01T08:23:50;2.60;99.90
10722;DHT22;5412;59.450;18.124;2023-02-01T08:26:21;2.80;99.90
10722;DHT22;5412;59.450;18.124;2023-02-01T08:28:50;2.80;99.90
10722;DHT22;5412;59.450;18.124;2023-02-01T08:31:18;2.60;99.90
10722;DHT22;5412;59.450;18.124;2023-02-01T08:33:53;2.70;99.90
10722;DHT22;5412;59.450;18.124;2023-02-01T08:36:21;2.70;99.90
10722;DHT22;5412;59.450;18.124;2023-02-01T08:38:47;2.50;99.90
10722;DHT22;5412;59.450;18.124;2023-02-01T08:41:16;2.90;99.90
10722;DHT22;5412;59.450;18.124;2023-02-01T08:43:42;2.90;99.90
10722;DHT22;5412;59.450;18.124;2023-02-01T08:46:09;2.90;99.90
10722;DHT22;5412;59.450;18.124;2023-02-01T08:48:35;2.80;99.90
10722;DHT22;5412;59.450;18.124;2023-02-01T08:51:06;2.70;99.90
10722;DHT22;5412;59.450;18.124;2023-02-01T08:53:33;2.60;99.90
10722;DHT22;5412;59.450;18.124;2023-02-01T08:55:59;2.60;99.90
10722;DHT22;5412;59.450;18.124;2023-02-01T08:58:26;2.60;99.90
10722;DHT22;5412;59.450;18.124;2023-02-01T09:00:52;2.60;99.90
10722;DHT22;5412;59.450;18.124;2023-02-01T09:03:17;2.70;99.90
10722;DHT22;5412;59.450;18.124;2023-02-01T09:05:43;2.70;99.90
10722;DHT22;5412;59.450;18.124;2023-02-01T09:08:11;2.60;99.90
10722;DHT22;5412;59.450;18.124;2023-02-01T09:10:40;2.60;99.90
10722;DHT22;5412;59.450;18.124;2023-02-01T09:13:07;2.70;99.90
10722;DHT22;5412;59.450;18.124;2023-02-01T09:15:33;2.60;99.90
10722;DHT22;5412;59.450;18.124;2023-02-01T09:17:59;2.60;99.90
10722;DHT22;5412;59.450;18.124;2023-02-01T09:20:25;2.70;99.90
10722;DHT22;5412;59.450;18.124;2023-02-01T09:22:52;2.70;99.90
10722;DHT22;5412;59.450;18.124;2023-02-01T09:25:18;2.70;99.90
10722;DHT22;5412;59.450;18.124;2023-02-01T09:27:44;2.60;99.90
10722;DHT22;5412;59.450;18.124;2023-02-01T09:30:10;2.70;99.90
10722;DHT22;5412;59.450;18.124;2023-02-01T09:32:36;2.80;99.90
10722;DHT22;5412;59.450;18.124;2023-02-01T09:35:02;2.70;99.90
10722;DHT22;5412;59.450;18.124;2023-02-01T09:37:28;2.90;99.90
10722;DHT22;5412;59.450;18.124;2023-02-01T09:39:54;2.90;99.90
10722;DHT22;5412;59.450;18.124;2023-02-01T09:42:44;2.80;99.90
10722;DHT22;5412;59.450;18.124;2023-02-01T09:45:17;2.80;99.90
10722;DHT22;5412;59.450;18.124;2023-02-01T09:47:53;2.80;99.90
10722;DHT22;5412;59.450;18.124;2023-02-01T09:50:22;2.80;99.90
10722;DHT22;5412;59.450;18.124;2023-02-01T09:55:49;2.70;99.90
10722;DHT22;5412;59.450;18.124;2023-02-01T09:58:35;2.80;99.90
10722;DHT22;5412;59.450;18.124;2023-02-01T10:01:03;2.80;99.90
10722;DHT22;5412;59.450;18.124;2023-02-01T10:03:34;2.80;99.90
10722;DHT22;5412;59.450;18.124;2023-02-01T10:08:56;2.60;99.90
10722;DHT22;5412;59.450;18.124;2023-02-01T10:17:16;2.70;99.90
10722;DHT22;5412;59.450;18.124;2023-02-01T10:27:37;2.70;99.90
10722;DHT22;5412;59.450;18.124;2023-02-01T10:32:43;2.60;99.90
10722;DHT22;5412;59.450;18.124;2023-02-01T10:35:16;2.70;99.90
10722;DHT22;5412;59.450;18.124;2023-02-01T10:37:44;2.70;99.90
10722;DHT22;5412;59.450;18.124;2023-02-01T10:40:26;2.90;99.90
10722;DHT22;5412;59.450;18.124;2023-02-01T10:42:53;2.90;99.90
10722;DHT22;5412;59.450;18.124;2023-02-01T10:45:22;2.90;99.90
10722;DHT22;5412;59.450;18.124;2023-02-01T10:47:51;2.90;99.90
10722;DHT22;5412;59.450;18.124;2023-02-01T10:53:42;2.90;99.90
10722;DHT22;5412;59.450;18.124;2023-02-01T10:56:11;2.90;99.90
10722;DHT22;5412;59.450;18.124;2023-02-01T10:58:45;2.90;99.90
10722;DHT22;5412;59.450;18.124;2023-02-01T11:01:19;2.90;99.90
10722;DHT22;5412;59.450;18.124;2023-02-01T11:08:53;3.00;99.90
10722;DHT22;5412;59.450;18.124;2023-02-01T11:11:20;3.10;99.90
10722;DHT22;5412;59.450;18.124;2023-02-01T11:13:56;3.10;99.90
10722;DHT22;5412;59.450;18.124;2023-02-01T11:16:29;3.10;99.90
10722;DHT22;5412;59.450;18.124;2023-02-01T11:18:55;3.10;99.90
10722;DHT22;5412;59.450;18.124;2023-02-01T11:21:23;3.20;99.90
10722;DHT22;5412;59.450;18.124;2023-02-01T11:23:49;3.10;99.90
10722;DHT22;5412;59.450;18.124;2023-02-01T11:26:26;3.00;99.90
10722;DHT22;5412;59.450;18.124;2023-02-01T11:29:03;3.10;99.90
10722;DHT22;5412;59.450;18.124;2023-02-01T11:31:29;3.20;99.90
10722;DHT22;5412;59.450;18.124;2023-02-01T11:34:04;3.30;99.90
10722;DHT22;5412;59.450;18.124;2023-02-01T11:36:32;3.40;99.90
10722;DHT22;5412;59.450;18.124;2023-02-01T11:39:21;3.30;99.90
10722;DHT22;5412;59.450;18.124;2023-02-01T11:42:14;3.10;99.90
10722;DHT22;5412;59.450;18.124;2023-02-01T11:44:42;2.70;99.90
10722;DHT22;5412;59.450;18.124;2023-02-01T11:49:44;2.70;99.90
10722;DHT22;5412;59.450;18.124;2023-02-01T12:06:53;2.70;99.90
10722;DHT22;5412;59.450;18.124;2023-02-01T12:09:42;2.60;99.90
10722;DHT22;5412;59.450;18.124;2023-02-01T12:20:50;2.50;99.90
10722;DHT22;5412;59.450;18.124;2023-02-01T12:26:35;2.50;99.90
10722;DHT22;5412;59.450;18.124;2023-02-01T12:32:07;2.60;99.90
10722;DHT22;5412;59.450;18.124;2023-02-01T12:38:03;2.50;99.90
10722;DHT22;5412;59.450;18.124;2023-02-01T12:43:33;2.70;99.90
10722;DHT22;5412;59.450;18.124;2023-02-01T12:46:09;2.80;99.90
10722;DHT22;5412;59.450;18.124;2023-02-01T12:51:27;2.50;99.90
10722;DHT22;5412;59.450;18.124;2023-02-01T12:56:37;2.50;99.90
10722;DHT22;5412;59.450;18.124;2023-02-01T12:59:09;2.60;99.90
10722;DHT22;5412;59.450;18.124;2023-02-01T13:02:01;2.60;99.90
10722;DHT22;5412;59.450;18.124;2023-02-01T13:04:59;2.60;99.90
10722;DHT22;5412;59.450;18.124;2023-02-01T13:07:49;2.70;99.90
10722;DHT22;5412;59.450;18.124;2023-02-01T13:12:56;2.90;99.90
10722;DHT22;5412;59.450;18.124;2023-02-01T13:15:36;2.90;99.90
10722;DHT22;5412;59.450;18.124;2023-02-01T13:18:05;3.00;99.90
10722;DHT22;5412;59.450;18.124;2023-02-01T13:20:37;3.00;99.90
10722;DHT22;5412;59.450;18.124;2023-02-01T13:23:18;2.80;99.90
10722;DHT22;5412;59.450;18.124;2023-02-01T13:25:51;2.70;99.90
10722;DHT22;5412;59.450;18.124;2023-02-01T13:36:48;2.50;99.90
10722;DHT22;5412;59.450;18.124;2023-02-01T13:41:52;2.40;99.90
10722;DHT22;5412;59.450;18.124;2023-02-01T13:44:27;2.40;99.90
10722;DHT22;5412;59.450;18.124;2023-02-01T13:46:57;2.40;99.90
10722;DHT22;5412;59.450;18.124;2023-02-01T13:49:27;2.40;99.90
10722;DHT22;5412;59.450;18.124;2023-02-01T13:51:56;2.30;99.90
10722;DHT22;5412;59.450;18.124;2023-02-01T13:54:31;2.10;99.90
10722;DHT22;5412;59.450;18.124;2023-02-01T13:57:02;2.00;99.90
10722;DHT22;5412;59.450;18.124;2023-02-01T14:05:10;1.70;99.90
10722;DHT22;5412;59.450;18.124;2023-02-01T14:07:40;1.60;99.90
10722;DHT22;5412;59.450;18.124;2023-02-01T14:15:39;1.60;99.90
10722;DHT22;5412;59.450;18.124;2023-02-01T14:21:31;1.40;99.90
10722;DHT22;5412;59.450;18.124;2023-02-01T14:26:47;1.50;99.90
10722;DHT22;5412;59.450;18.124;2023-02-01T14:32:04;1.50;99.90
10722;DHT22;5412;59.450;18.124;2023-02-01T14:34:34;1.50;99.90
10722;DHT22;5412;59.450;18.124;2023-02-01T14:37:06;1.50;99.90
10722;DHT22;5412;59.450;18.124;2023-02-01T14:39:58;1.50;99.90
10722;DHT22;5412;59.450;18.124;2023-02-01T14:50:43;1.90;99.90
10722;DHT22;5412;59.450;18.124;2023-02-01T14:55:54;2.00;99.90
10722;DHT22;5412;59.450;18.124;2023-02-01T15:01:24;1.80;99.90
10722;DHT22;5412;59.450;18.124;2023-02-01T15:09:04;1.80;99.90
10722;DHT22;5412;59.450;18.124;2023-02-01T15:14:32;1.80;99.90
10722;DHT22;5412;59.450;18.124;2023-02-01T15:16:58;1.80;99.90
10722;DHT22;5412;59.450;18.124;2023-02-01T15:19:27;1.90;99.90
10722;DHT22;5412;59.450;18.124;2023-02-01T15:21:55;1.80;99.90
10722;DHT22;5412;59.450;18.124;2023-02-01T15:24:29;1.90;99.90
10722;DHT22;5412;59.450;18.124;2023-02-01T15:26:58;2.00;99.90
10722;DHT22;5412;59.450;18.124;2023-02-01T15:29:27;2.00;99.90
10722;DHT22;5412;59.450;18.124;2023-02-01T15:31:58;2.00;99.90
10722;DHT22;5412;59.450;18.124;2023-02-01T15:34:47;2.00;99.90
10722;DHT22;5412;59.450;18.124;2023-02-01T15:37:14;2.10;99.90
10722;DHT22;5412;59.450;18.124;2023-02-01T15:40:05;2.10;99.90
10722;DHT22;5412;59.450;18.124;2023-02-01T15:42:54;2.10;99.90
10722;DHT22;5412;59.450;18.124;2023-02-01T15:45:23;2.10;99.90
10722;DHT22;5412;59.450;18.124;2023-02-01T15:47:52;2.10;99.90
10722;DHT22;5412;59.450;18.124;2023-02-01T15:50:20;2.00;99.90
10722;DHT22;5412;59.450;18.124;2023-02-01T15:52:50;2.00;99.90
10722;DHT22;5412;59.450;18.124;2023-02-01T15:55:36;2.10;99.90
10722;DHT22;5412;59.450;18.124;2023-02-01T15:58:29;2.10;99.90
10722;DHT22;5412;59.450;18.124;2023-02-01T16:00:59;2.20;99.90
10722;DHT22;5412;59.450;18.124;2023-02-01T16:06:02;2.20;99.90
10722;DHT22;5412;59.450;18.124;2023-02-01T16:08:30;2.20;99.90
10722;DHT22;5412;59.450;18.124;2023-02-01T16:13:45;2.20;99.90
10722;DHT22;5412;59.450;18.124;2023-02-01T16:16:11;2.20;99.90
10722;DHT22;5412;59.450;18.124;2023-02-01T16:18:40;2.20;99.90
10722;DHT22;5412;59.450;18.124;2023-02-01T16:21:06;2.20;99.90
10722;DHT22;5412;59.450;18.124;2023-02-01T16:23:34;2.20;99.90
10722;DHT22;5412;59.450;18.124;2023-02-01T16:26:01;2.20;99.90
10722;DHT22;5412;59.450;18.124;2023-02-01T16:28:26;2.20;99.90
10722;DHT22;5412;59.450;18.124;2023-02-01T16:30:52;2.20;99.90
10722;DHT22;5412;59.450;18.124;2023-02-01T16:33:19;2.30;99.90
10722;DHT22;5412;59.450;18.124;2023-02-01T16:35:48;2.20;99.90
10722;DHT22;5412;59.450;18.124;2023-02-01T16:38:17;2.20;99.90
10722;DHT22;5412;59.450;18.124;2023-02-01T16:40:45;2.20;99.90
10722;DHT22;5412;59.450;18.124;2023-02-01T16:45:43;2.10;99.90
10722;DHT22;5412;59.450;18.124;2023-02-01T16:48:34;2.20;99.90
10722;DHT22;5412;59.450;18.124;2023-02-01T16:51:09;2.20;99.90
10722;DHT22;5412;59.450;18.124;2023-02-01T16:53:36;2.20;99.90
10722;DHT22;5412;59.450;18.124;2023-02-01T16:56:10;2.00;99.90
10722;DHT22;5412;59.450;18.124;2023-02-01T16:58:37;1.80;99.90
10722;DHT22;5412;59.450;18.124;2023-02-01T17:01:06;1.90;99.90
10722;DHT22;5412;59.450;18.124;2023-02-01T17:03:32;2.00;99.90
10722;DHT22;5412;59.450;18.124;2023-02-01T17:05:58;1.70;99.90
10722;DHT22;5412;59.450;18.124;2023-02-01T17:08:45;1.80;99.90
10722;DHT22;5412;59.450;18.124;2023-02-01T17:11:12;1.80;99.90
10722;DHT22;5412;59.450;18.124;2023-02-01T17:13:39;1.80;99.90
10722;DHT22;5412;59.450;18.124;2023-02-01T17:16:27;1.60;99.90
10722;DHT22;5412;59.450;18.124;2023-02-01T17:21:21;1.40;99.90
10722;DHT22;5412;59.450;18.124;2023-02-01T17:23:47;1.40;99.90
10722;DHT22;5412;59.450;18.124;2023-02-01T17:26:13;1.50;99.90
10722;DHT22;5412;59.450;18.124;2023-02-01T17:28:39;1.50;99.90
10722;DHT22;5412;59.450;18.124;2023-02-01T17:31:04;1.50;99.90
10722;DHT22;5412;59.450;18.124;2023-02-01T17:33:34;1.40;99.90
10722;DHT22;5412;59.450;18.124;2023-02-01T17:36:01;1.40;99.90
10722;DHT22;5412;59.450;18.124;2023-02-01T17:38:27;1.50;99.90
10722;DHT22;5412;59.450;18.124;2023-02-01T17:40:53;1.30;99.90
10722;DHT22;5412;59.450;18.124;2023-02-01T17:43:24;1.20;99.90
10722;DHT22;5412;59.450;18.124;2023-02-01T17:45:59;1.20;99.90
10722;DHT22;5412;59.450;18.124;2023-02-01T17:48:28;1.20;99.90
10722;DHT22;5412;59.450;18.124;2023-02-01T17:50:55;1.30;99.90
10722;DHT22;5412;59.450;18.124;2023-02-01T17:53:29;1.20;99.90
10722;DHT22;5412;59.450;18.124;2023-02-01T17:55:55;1.20;99.90
10722;DHT22;5412;59.450;18.124;2023-02-01T17:58:23;1.10;99.90
10722;DHT22;5412;59.450;18.124;2023-02-01T18:00:49;1.20;99.90
10722;DHT22;5412;59.450;18.124;2023-02-01T18:03:22;1.20;99.90
10722;DHT22;5412;59.450;18.124;2023-02-01T18:05:49;1.10;99.90
10722;DHT22;5412;59.450;18.124;2023-02-01T18:08:17;1.10;99.90
10722;DHT22;5412;59.450;18.124;2023-02-01T18:10:43;1.00;99.90
10722;DHT22;5412;59.450;18.124;2023-02-01T18:13:10;0.90;99.90
10722;DHT22;5412;59.450;18.124;2023-02-01T18:15:37;1.00;99.90
10722;DHT22;5412;59.450;18.124;2023-02-01T18:18:04;1.00;99.90
10722;DHT22;5412;59.450;18.124;2023-02-01T18:20:30;1.00;99.90
10722;DHT22;5412;59.450;18.124;2023-02-01T18:22:56;0.80;99.90
10722;DHT22;5412;59.450;18.124;2023-02-01T18:25:24;0.70;99.90
10722;DHT22;5412;59.450;18.124;2023-02-01T18:27:52;0.60;99.90
10722;DHT22;5412;59.450;18.124;2023-02-01T18:30:19;0.80;99.90
10722;DHT22;5412;59.450;18.124;2023-02-01T18:32:46;0.80;99.90
10722;DHT22;5412;59.450;18.124;2023-02-01T18:35:33;0.80;99.90
10722;DHT22;5412;59.450;18.124;2023-02-01T18:37:59;0.80;99.90
10722;DHT22;5412;59.450;18.124;2023-02-01T18:40:31;0.80;99.90
10722;DHT22;5412;59.450;18.124;2023-02-01T18:42:58;0.90;99.90
10722;DHT22;5412;59.450;18.124;2023-02-01T18:45:39;0.90;99.90
10722;DHT22;5412;59.450;18.124;2023-02-01T18:48:06;0.80;99.90
10722;DHT22;5412;59.450;18.124;2023-02-01T18:50:35;0.90;99.90
10722;DHT22;5412;59.450;18.124;2023-02-01T18:53:03;0.90;99.90